Cloverdale, OR

7:47 PM PDT on September 16, 2014 (GMT -0700)
Newport Municipal | Change Station
CLOSE
Current Station
Airport
Location: Newport Airport,
Elevation: 157 ft
Nearby Weather Stations

Elev 157 ft 44.58 °N, 124.06 °W | Updated 12 minutes ago

Partly Cloudy
Partly Cloudy
59 °F
Feels Like 59 °F
N
0
Wind Variable Wind from North

Today
High -- | Low -- °F
--% Chance of Precip.
Yesterday
High -- | Low -- °F
Precip. -- in
6:55 AM 7:24 PM
Last Quarter, 40% visible
Pressure 29.92 in
Visibility 5.0 miles
Clouds Clear
Dew Point 55 °F
Humidity 88%
Rainfall 0.00 in
Snow Depth 0 in , 1 in , 0 in
UV 0 out of 12
Pollen 2.20 out of 12
Air Quality Not available.
Flu Activity Not available.
METAR KONP 170235Z AUTO 00000KT 5SM BR CLR 15/13 A2992 RMK AO2

More Conditions Fewer Conditions

Pressure 29.92 in
Visibility 5.0 miles
Clouds Clear
Dew Point 55 °F
Humidity 88%
Rainfall 0.00 in
Snow Depth 0 in , 1 in , 0 in
UV 0 out of 12
Pollen 2.20 out of 12
Air Quality Not available.
Flu Activity Not available.
METAR KONP 170235Z AUTO 00000KT 5SM BR CLR 15/13 A2992 RMK AO2

More Conditions Fewer Conditions

10-Day Weather Forecast

Almanac

Astronomy

Sep. 16, 2014 Rise Set
Actual Time 6:55 AM PDT 7:24 PM PDT
Civil Twilight 6:26 AM PDT 7:54 PM PDT
Nautical Twilight 5:51 AM PDT 8:28 PM PDT
Astronomical Twilight 5:14 AM PDT 9:05 PM PDT
Moon No Moon Rise 3:04 PM PDT (9/16)
Length of Visible Light 13h 28m
Length of Day
12h 28m
Tomorrow will be 3m 7s shorter.
Last Quarter, 40% of the Moon is Illuminated
Today
Last Quarter
Sep 24
New
Oct 1
First Quarter
Oct 8
Full
Oct 15
Last Quarter

Today's Extremes

State Highs State Lows

Community

WunderPhotos

Upload Photos

1,753,949 photos uploaded!

Nearby

Snow Depth

Station Depth Elevation
Mt. Howard 0 in 7910 ft
Greenpoint 1 in 3200 ft
Blue Mountain Spring 0 in 5900 ft
Roaring River 0 in 4900 ft
Bigelow Camp 0 in 5120 ft

Earthquake Activity

City Distance Mag. Time & Date
Morton, Washington 107 miles 3.0 5:43 AM PDT
2014-09-16
Minimum magnitude displayed is 2.5.

Coastal Water Temperatures

Place Temperature
Garibaldi, Tillamook Bay, OR 55.0 °F
Astoria, OR 64.9 °F
Westport, WA 57.0 °F

Nearby Weather Stations